createdAt,value
2023-05-03T00:01:14.101Z,7.54
2023-05-03T00:03:40.413Z,7.25
2023-05-03T00:06:14.179Z,7.06
2023-05-03T00:08:41.325Z,7.39
2023-05-03T00:11:08.487Z,7.27
2023-05-03T00:13:35.154Z,6.88
2023-05-03T00:16:01.902Z,6.92
2023-05-03T00:18:29.198Z,6.97
2023-05-03T00:20:55.605Z,7.27
2023-05-03T00:23:21.944Z,6.78
2023-05-03T00:25:53.174Z,7.03
2023-05-03T00:28:19.477Z,6.77
2023-05-03T00:30:45.942Z,6.58
2023-05-03T00:33:12.429Z,7.11
2023-05-03T00:35:38.814Z,7.18
2023-05-03T00:38:05.129Z,7.31
2023-05-03T00:40:31.782Z,6.83
2023-05-03T00:42:58.120Z,6.96
2023-05-03T00:45:24.542Z,6.94
2023-05-03T00:47:51.067Z,6.98
2023-05-03T00:50:17.565Z,6.53
2023-05-03T00:52:44.130Z,6.79
2023-05-03T00:55:11.446Z,6.88
2023-05-03T00:57:37.763Z,6.62
2023-05-03T01:00:04.825Z,6.11
2023-05-03T01:02:31.497Z,6.23
2023-05-03T01:04:57.898Z,6.46
2023-05-03T01:07:48.944Z,6.22
2023-05-03T01:10:26.487Z,6.39
2023-05-03T01:13:07.588Z,6.37
2023-05-03T01:15:52.799Z,6.35
2023-05-03T01:18:23.888Z,6.20
2023-05-03T01:20:51.384Z,6.21
2023-05-03T01:23:32.974Z,6.17
2023-05-03T01:26:00.002Z,6.07
2023-05-03T01:28:26.347Z,5.93
2023-05-03T01:30:54.817Z,5.75
2023-05-03T01:33:52.205Z,5.94
2023-05-03T01:36:32.443Z,5.87
2023-05-03T01:39:06.580Z,5.77
2023-05-03T01:41:35.132Z,6.20
2023-05-03T01:44:03.394Z,6.35
2023-05-03T01:46:29.885Z,6.21
2023-05-03T01:48:56.270Z,6.25
2023-05-03T01:51:22.600Z,6.29
2023-05-03T01:53:49.447Z,6.05
2023-05-03T01:56:15.801Z,6.09
2023-05-03T01:58:42.145Z,6.06
2023-05-03T02:01:09.596Z,5.62
2023-05-03T02:03:35.949Z,6.13
2023-05-03T02:06:02.384Z,5.88
2023-05-03T02:08:28.727Z,5.82
2023-05-03T02:10:55.046Z,6.09
2023-05-03T02:13:21.336Z,5.85
2023-05-03T02:15:48.128Z,5.83
2023-05-03T02:18:16.337Z,5.71
2023-05-03T02:20:46.522Z,5.13
2023-05-03T02:23:13.144Z,5.55
2023-05-03T02:25:40.510Z,5.36
2023-05-03T02:28:06.880Z,5.20
2023-05-03T02:30:34.921Z,5.56
2023-05-03T02:33:02.205Z,5.44
2023-05-03T02:35:29.339Z,5.59
2023-05-03T02:37:55.977Z,5.83
2023-05-03T02:40:22.445Z,5.35
2023-05-03T02:42:48.773Z,5.12
2023-05-03T02:45:22.591Z,5.56
2023-05-03T02:47:48.988Z,5.48
2023-05-03T02:50:15.571Z,5.55
2023-05-03T02:52:41.991Z,5.66
2023-05-03T02:55:08.841Z,5.36
2023-05-03T02:57:36.142Z,5.32
2023-05-03T03:00:05.864Z,5.44
2023-05-03T03:02:33.047Z,5.25
2023-05-03T03:04:59.463Z,5.28
2023-05-03T03:07:27.857Z,5.55
2023-05-03T03:09:56.651Z,5.49
2023-05-03T03:12:23.073Z,5.27
2023-05-03T03:14:49.462Z,5.04
2023-05-03T03:17:15.818Z,5.04
2023-05-03T03:19:42.229Z,4.64
2023-05-03T03:22:08.690Z,4.86
2023-05-03T03:24:36.670Z,4.84
2023-05-03T03:27:03.849Z,4.50
2023-05-03T03:29:32.237Z,4.80
2023-05-03T03:32:00.420Z,4.71
2023-05-03T03:34:26.815Z,4.90
2023-05-03T03:36:53.295Z,5.21
2023-05-03T03:39:20.720Z,5.33
2023-05-03T03:41:47.979Z,5.02
2023-05-03T03:44:14.432Z,4.84
2023-05-03T03:46:40.880Z,4.41
2023-05-03T03:49:08.047Z,4.26
2023-05-03T03:51:35.675Z,4.23
2023-05-03T03:54:02.260Z,4.40
2023-05-03T03:56:33.879Z,4.60
2023-05-03T03:59:00.306Z,4.76
2023-05-03T04:01:26.768Z,4.77
2023-05-03T04:03:53.395Z,4.81
2023-05-03T04:06:19.818Z,4.68
2023-05-03T04:08:46.991Z,4.47
2023-05-03T04:11:14.661Z,4.55
2023-05-03T04:13:49.552Z,4.26
2023-05-03T04:16:16.816Z,4.28
2023-05-03T04:18:43.817Z,4.51
2023-05-03T04:21:10.181Z,4.75
2023-05-03T04:23:36.835Z,4.53
2023-05-03T04:26:05.473Z,4.62
2023-05-03T04:28:33.898Z,4.21
2023-05-03T04:31:00.570Z,4.38
2023-05-03T04:33:29.865Z,4.48
2023-05-03T04:36:01.076Z,4.52
2023-05-03T04:38:28.062Z,4.69
2023-05-03T04:40:57.054Z,4.27
2023-05-03T04:43:24.102Z,4.36
2023-05-03T04:45:53.046Z,4.11
2023-05-03T04:48:22.677Z,4.33
2023-05-03T04:50:49.565Z,4.56
2023-05-03T04:53:18.474Z,4.30
2023-05-03T04:55:50.993Z,4.51
2023-05-03T04:58:17.447Z,4.88
2023-05-03T05:00:45.852Z,4.87
2023-05-03T05:03:18.306Z,4.90
2023-05-03T05:05:44.680Z,4.79
2023-05-03T05:08:11.872Z,4.59
2023-05-03T05:10:43.569Z,4.84
2023-05-03T05:13:14.338Z,4.91
2023-05-03T05:15:41.352Z,4.88
2023-05-03T05:18:10.320Z,4.91
2023-05-03T05:20:38.135Z,4.79
2023-05-03T05:23:05.185Z,4.71
2023-05-03T05:25:31.582Z,4.84
2023-05-03T05:28:00.329Z,4.98
2023-05-03T05:30:28.395Z,4.72
2023-05-03T05:32:54.843Z,4.81
2023-05-03T05:35:21.220Z,5.13
2023-05-03T05:37:47.765Z,5.22
2023-05-03T05:40:15.339Z,5.35
2023-05-03T05:42:48.436Z,5.15
2023-05-03T05:45:15.115Z,5.29
2023-05-03T05:47:42.752Z,5.33
2023-05-03T05:50:17.542Z,5.39
2023-05-03T05:52:50.760Z,5.51
2023-05-03T05:55:17.238Z,5.67
2023-05-03T05:57:45.028Z,5.68
2023-05-03T06:00:15.342Z,5.75
2023-05-03T06:02:47.012Z,5.81
2023-05-03T06:05:17.701Z,5.95
2023-05-03T06:07:44.117Z,6.13
2023-05-03T06:10:10.800Z,6.44
2023-05-03T06:12:39.209Z,6.56
2023-05-03T06:15:11.012Z,6.79
2023-05-03T06:17:37.666Z,6.91
2023-05-03T06:20:04.801Z,7.09
2023-05-03T06:22:31.411Z,7.09
2023-05-03T06:24:58.324Z,7.15
2023-05-03T06:27:25.562Z,7.23
2023-05-03T06:29:52.838Z,7.34
2023-05-03T06:32:19.443Z,7.51
2023-05-03T06:34:46.062Z,7.63
2023-05-03T06:37:12.665Z,7.69
2023-05-03T06:39:38.985Z,7.67
2023-05-03T06:42:05.485Z,7.60
2023-05-03T06:44:36.720Z,7.59
2023-05-03T06:47:03.120Z,7.71
2023-05-03T06:49:29.528Z,7.70
2023-05-03T06:51:55.833Z,7.70
2023-05-03T06:54:22.161Z,7.97
2023-05-03T06:56:48.462Z,8.08
2023-05-03T06:59:14.767Z,8.28
2023-05-03T07:01:41.138Z,8.30
2023-05-03T07:04:07.773Z,8.42
2023-05-03T07:06:44.335Z,8.51
2023-05-03T07:09:14.962Z,8.72
2023-05-03T07:11:49.179Z,9.00
2023-05-03T07:14:16.388Z,8.96
2023-05-03T07:16:42.923Z,9.06
2023-05-03T07:19:09.340Z,9.15
2023-05-03T07:21:35.658Z,9.01
2023-05-03T07:24:01.985Z,9.06
2023-05-03T07:26:28.269Z,9.15
2023-05-03T07:28:54.558Z,9.28
2023-05-03T07:31:22.985Z,9.19
2023-05-03T07:33:49.421Z,9.30
2023-05-03T07:36:15.754Z,9.51
2023-05-03T07:38:42.078Z,9.65
2023-05-03T07:41:08.462Z,9.75
2023-05-03T07:43:34.752Z,9.88
2023-05-03T07:46:01.097Z,10.05
2023-05-03T07:48:27.429Z,10.01
2023-05-03T07:50:53.826Z,10.11
2023-05-03T07:53:20.305Z,10.24
2023-05-03T07:55:46.688Z,10.25
2023-05-03T07:58:13.265Z,10.40
2023-05-03T08:00:39.592Z,10.58
2023-05-03T08:03:06.692Z,10.53
2023-05-03T08:05:36.406Z,10.63
2023-05-03T08:08:03.914Z,10.69
2023-05-03T08:10:30.301Z,10.88
2023-05-03T08:12:56.594Z,11.10
2023-05-03T08:15:22.923Z,11.12
2023-05-03T08:17:49.418Z,11.07
2023-05-03T08:20:16.603Z,11.21
2023-05-03T08:22:45.075Z,11.23
2023-05-03T08:25:12.289Z,11.16
2023-05-03T08:27:39.929Z,11.24
2023-05-03T08:30:07.633Z,11.37
2023-05-03T08:32:34.510Z,11.65
2023-05-03T08:35:01.209Z,11.56
2023-05-03T08:37:27.508Z,11.74
2023-05-03T08:39:53.804Z,11.85
2023-05-03T08:42:20.163Z,11.86
2023-05-03T08:44:48.531Z,11.92
2023-05-03T08:47:16.920Z,12.00
2023-05-03T08:49:44.198Z,12.05
2023-05-03T08:52:11.997Z,12.14
2023-05-03T08:54:38.840Z,12.18
2023-05-03T08:57:11.236Z,12.41
2023-05-03T08:59:51.260Z,12.44
2023-05-03T09:02:17.893Z,12.53
2023-05-03T09:04:45.021Z,12.49
2023-05-03T09:07:12.862Z,12.57
2023-05-03T09:09:39.264Z,12.69
2023-05-03T09:12:05.932Z,12.67
2023-05-03T09:14:42.291Z,12.81
2023-05-03T09:17:21.417Z,13.00
2023-05-03T09:19:55.449Z,13.05
2023-05-03T09:22:32.936Z,12.94
2023-05-03T09:25:01.734Z,12.94
2023-05-03T09:27:28.438Z,12.97
2023-05-03T09:29:55.046Z,13.11
2023-05-03T09:32:22.795Z,13.31
2023-05-03T09:34:49.217Z,13.51
2023-05-03T09:37:15.634Z,13.51
2023-05-03T09:39:45.814Z,13.48
2023-05-03T09:42:13.202Z,13.56
2023-05-03T09:44:51.278Z,13.70
2023-05-03T09:47:18.622Z,13.86
2023-05-03T09:49:45.372Z,13.99
2023-05-03T09:52:12.160Z,14.15
2023-05-03T09:54:39.425Z,14.18
2023-05-03T09:57:07.913Z,14.28
2023-05-03T09:59:36.009Z,14.36
2023-05-03T10:02:04.624Z,14.62
2023-05-03T10:04:44.296Z,14.66
2023-05-03T10:07:17.156Z,14.68
2023-05-03T10:09:45.437Z,14.75
2023-05-03T10:12:13.377Z,14.97
2023-05-03T10:14:41.953Z,15.05
2023-05-03T10:17:14.386Z,15.23
2023-05-03T10:19:57.554Z,15.51
2023-05-03T10:22:23.865Z,15.53
2023-05-03T10:25:02.573Z,15.56
2023-05-03T10:27:48.400Z,15.69
2023-05-03T10:30:37.161Z,15.68
2023-05-03T10:33:09.725Z,15.68
2023-05-03T10:35:39.320Z,15.80
2023-05-03T10:38:20.541Z,15.97
2023-05-03T10:40:46.914Z,15.93
2023-05-03T10:43:28.551Z,16.18
2023-05-03T10:46:05.925Z,16.50
2023-05-03T10:48:33.636Z,16.41
2023-05-03T10:51:33.487Z,16.59
2023-05-03T10:53:59.878Z,16.69
2023-05-03T10:56:26.331Z,17.02
2023-05-03T10:58:56.491Z,16.90
2023-05-03T11:01:24.781Z,17.04
2023-05-03T11:04:05.375Z,17.18
2023-05-03T11:06:36.952Z,17.15
2023-05-03T11:09:06.379Z,17.15
2023-05-03T11:11:33.938Z,17.49
2023-05-03T11:14:00.647Z,17.59
2023-05-03T11:16:27.293Z,17.62
2023-05-03T11:18:54.026Z,17.51
2023-05-03T11:21:21.059Z,17.75
2023-05-03T11:23:47.425Z,17.87
2023-05-03T11:26:13.981Z,18.05
2023-05-03T11:28:44.285Z,18.01
2023-05-03T11:31:12.335Z,18.01
2023-05-03T11:33:39.724Z,18.04
2023-05-03T11:36:09.444Z,18.02
2023-05-03T11:38:38.637Z,18.25
2023-05-03T11:41:19.315Z,18.45
2023-05-03T11:43:52.796Z,18.56
2023-05-03T11:46:27.677Z,18.44
2023-05-03T11:48:54.282Z,18.33
2023-05-03T11:51:25.352Z,18.59
2023-05-03T11:53:51.922Z,18.58
2023-05-03T11:56:20.442Z,18.52
2023-05-03T11:59:04.764Z,18.83
2023-05-03T12:01:31.506Z,18.84
2023-05-03T12:04:03.843Z,19.02
2023-05-03T12:06:35.994Z,19.33
2023-05-03T12:09:13.097Z,19.18
2023-05-03T12:11:42.966Z,19.39
2023-05-03T12:14:10.896Z,19.51
2023-05-03T12:16:52.576Z,19.56
2023-05-03T12:19:28.239Z,19.81
2023-05-03T12:22:17.945Z,19.78
2023-05-03T12:24:45.317Z,19.86
2023-05-03T12:27:13.845Z,20.21
2023-05-03T12:29:41.932Z,20.19
2023-05-03T12:32:10.745Z,20.27
2023-05-03T12:34:41.148Z,20.18
2023-05-03T12:37:11.585Z,20.34
2023-05-03T12:39:39.987Z,20.17
2023-05-03T12:42:08.800Z,20.16
2023-05-03T12:44:40.703Z,20.14
2023-05-03T12:47:09.958Z,20.01
2023-05-03T12:49:38.760Z,20.31
2023-05-03T12:52:35.506Z,20.39
2023-05-03T12:55:02.711Z,20.31
2023-05-03T12:57:30.889Z,20.14
2023-05-03T13:00:02.820Z,20.21
2023-05-03T13:05:11.232Z,19.99
2023-05-03T13:07:42.917Z,19.87
2023-05-03T13:12:41.137Z,20.12
2023-05-03T13:15:08.540Z,19.87
2023-05-03T13:17:35.124Z,19.82
2023-05-03T13:20:01.620Z,19.88
2023-05-03T13:22:28.141Z,19.78
2023-05-03T13:24:54.599Z,20.03
2023-05-03T13:27:20.882Z,19.98
2023-05-03T13:29:49.346Z,20.13
2023-05-03T13:32:16.740Z,20.08
2023-05-03T13:34:43.360Z,20.16
2023-05-03T13:37:11.063Z,20.11
2023-05-03T13:39:37.407Z,20.14
2023-05-03T13:42:03.842Z,20.12
2023-05-03T13:44:30.164Z,20.21
2023-05-03T13:46:56.942Z,20.10
2023-05-03T13:49:23.244Z,20.00
2023-05-03T13:51:49.586Z,19.79
2023-05-03T13:54:15.924Z,19.58
2023-05-03T13:56:42.896Z,18.96
2023-05-03T13:59:11.843Z,19.27
2023-05-03T14:01:38.332Z,19.46
2023-05-03T14:04:05.104Z,19.35
2023-05-03T14:06:33.536Z,19.49
2023-05-03T14:09:01.245Z,19.58
2023-05-03T14:11:28.515Z,19.83
2023-05-03T14:13:57.441Z,19.80
2023-05-03T14:16:39.201Z,19.72
2023-05-03T14:19:09.889Z,19.24
2023-05-03T14:21:36.233Z,18.85
2023-05-03T14:24:02.640Z,18.80
2023-05-03T14:26:29.504Z,19.09
2023-05-03T14:28:56.149Z,18.84
2023-05-03T14:31:22.668Z,18.84
2023-05-03T14:33:49.177Z,18.71
2023-05-03T14:36:15.619Z,18.47
2023-05-03T14:38:41.964Z,18.23
2023-05-03T14:41:09.052Z,18.40
2023-05-03T14:43:35.328Z,18.36
2023-05-03T14:46:01.834Z,18.33
2023-05-03T14:48:28.253Z,18.19
2023-05-03T14:50:54.630Z,18.18
2023-05-03T14:53:21.771Z,18.20
2023-05-03T14:55:48.232Z,18.13
2023-05-03T14:58:14.645Z,18.10
2023-05-03T15:00:41.734Z,18.17
2023-05-03T15:03:11.572Z,18.07
2023-05-03T15:05:46.395Z,18.02
2023-05-03T15:08:14.431Z,17.88
2023-05-03T15:10:41.572Z,17.89
2023-05-03T15:13:10.086Z,17.85
2023-05-03T15:15:40.489Z,17.72
2023-05-03T15:18:08.689Z,17.69
2023-05-03T15:20:35.641Z,17.70
2023-05-03T15:23:04.221Z,17.64
2023-05-03T15:25:31.035Z,17.62
2023-05-03T15:27:57.482Z,17.60
2023-05-03T15:30:23.809Z,17.60
2023-05-03T15:32:51.110Z,17.54
2023-05-03T15:35:17.527Z,17.60
2023-05-03T15:37:43.862Z,17.53
2023-05-03T15:40:12.850Z,17.62
2023-05-03T15:42:39.911Z,17.51
2023-05-03T15:45:07.520Z,17.48
2023-05-03T15:47:33.947Z,17.44
2023-05-03T15:50:01.952Z,17.40
2023-05-03T15:52:28.582Z,17.28
2023-05-03T15:54:56.083Z,17.35
2023-05-03T15:57:22.782Z,17.34
2023-05-03T15:59:49.422Z,17.25
2023-05-03T16:02:16.020Z,17.20
2023-05-03T16:04:42.426Z,17.17
2023-05-03T16:07:08.814Z,17.16
2023-05-03T16:09:35.129Z,17.16
2023-05-03T16:12:02.317Z,17.15
2023-05-03T16:14:28.661Z,17.08
2023-05-03T16:16:55.008Z,17.05
2023-05-03T16:19:21.522Z,17.04
2023-05-03T16:21:47.876Z,17.05
2023-05-03T16:24:14.274Z,16.99
2023-05-03T16:26:41.167Z,17.04
2023-05-03T16:29:07.497Z,17.04
2023-05-03T16:31:33.903Z,17.03
2023-05-03T16:34:02.523Z,17.00
2023-05-03T16:36:28.873Z,16.97
2023-05-03T16:38:55.256Z,16.85
2023-05-03T16:41:21.628Z,16.92
2023-05-03T16:43:47.932Z,16.84
2023-05-03T16:46:14.362Z,16.86
2023-05-03T16:48:40.721Z,16.93
2023-05-03T16:51:07.318Z,16.84
2023-05-03T16:53:33.661Z,16.85
2023-05-03T16:56:00.040Z,16.89
2023-05-03T16:58:26.365Z,16.87
2023-05-03T17:00:53.291Z,16.83
2023-05-03T17:03:19.886Z,16.79
2023-05-03T17:05:46.280Z,16.73
2023-05-03T17:08:13.383Z,16.67
2023-05-03T17:10:39.677Z,16.65
2023-05-03T17:13:06.213Z,16.51
2023-05-03T17:15:32.918Z,16.48
2023-05-03T17:18:00.723Z,16.45
2023-05-03T17:20:30.108Z,16.43
2023-05-03T17:22:56.622Z,16.32
2023-05-03T17:25:23.047Z,16.31
2023-05-03T17:27:51.611Z,16.32
2023-05-03T17:30:21.037Z,16.32
2023-05-03T17:32:48.383Z,16.25
2023-05-03T17:35:14.873Z,16.19
2023-05-03T17:37:41.280Z,16.21
2023-05-03T17:40:08.109Z,16.17
2023-05-03T17:42:35.169Z,16.21
2023-05-03T17:45:02.506Z,16.20
2023-05-03T17:47:29.286Z,16.15
2023-05-03T17:49:56.124Z,16.03
2023-05-03T17:52:22.640Z,16.07
2023-05-03T17:54:51.913Z,15.99
2023-05-03T17:57:20.653Z,15.97
2023-05-03T17:59:48.374Z,15.87
2023-05-03T18:02:14.841Z,15.83
2023-05-03T18:04:41.240Z,15.81
2023-05-03T18:07:07.714Z,15.71
2023-05-03T18:09:34.153Z,15.72
2023-05-03T18:12:03.297Z,15.71
2023-05-03T18:14:29.745Z,15.70
2023-05-03T18:16:56.066Z,15.58
2023-05-03T18:19:23.726Z,15.53
2023-05-03T18:21:50.090Z,15.54
2023-05-03T18:24:16.469Z,15.33
2023-05-03T18:26:42.768Z,15.50
2023-05-03T18:29:09.088Z,15.50
2023-05-03T18:31:35.441Z,15.53
2023-05-03T18:34:01.763Z,15.47
2023-05-03T18:36:28.150Z,15.32
2023-05-03T18:38:54.512Z,15.04
2023-05-03T18:41:20.890Z,14.87
2023-05-03T18:43:47.781Z,14.84
2023-05-03T18:46:18.726Z,14.73
2023-05-03T18:48:45.849Z,14.66
2023-05-03T18:51:12.258Z,14.49
2023-05-03T18:53:38.604Z,14.51
2023-05-03T18:56:05.158Z,14.47
2023-05-03T18:58:32.023Z,14.38
2023-05-03T19:00:59.974Z,14.12
2023-05-03T19:03:30.317Z,14.03
2023-05-03T19:06:01.000Z,13.88
2023-05-03T19:08:28.065Z,13.83
2023-05-03T19:10:54.382Z,13.79
2023-05-03T19:13:20.785Z,13.85
2023-05-03T19:15:47.234Z,13.60
2023-05-03T19:18:15.319Z,13.70
2023-05-03T19:20:43.156Z,13.58
2023-05-03T19:23:09.449Z,13.57
2023-05-03T19:25:35.897Z,13.33
2023-05-03T19:28:04.201Z,13.24
2023-05-03T19:30:30.542Z,13.37
2023-05-03T19:32:56.905Z,13.26
2023-05-03T19:35:23.225Z,13.44
2023-05-03T19:37:49.541Z,13.36
2023-05-03T19:40:15.922Z,13.06
2023-05-03T19:42:42.256Z,12.88
2023-05-03T19:45:09.787Z,12.88
2023-05-03T19:47:36.251Z,12.84
2023-05-03T19:50:02.850Z,12.79
2023-05-03T19:52:29.422Z,13.01
2023-05-03T19:54:57.153Z,12.85
2023-05-03T19:57:23.645Z,12.80
2023-05-03T19:59:50.738Z,12.44
2023-05-03T20:02:18.368Z,12.14
2023-05-03T20:04:44.741Z,12.19
2023-05-03T20:07:11.187Z,12.43
2023-05-03T20:09:37.489Z,12.49
2023-05-03T20:12:04.219Z,12.05
2023-05-03T20:14:32.517Z,12.09
2023-05-03T20:16:58.922Z,12.33
2023-05-03T20:19:25.803Z,12.02
2023-05-03T20:21:52.543Z,12.17
2023-05-03T20:24:20.566Z,12.37
2023-05-03T20:26:46.912Z,12.18
2023-05-03T20:29:13.344Z,11.96
2023-05-03T20:31:39.747Z,12.10
2023-05-03T20:34:06.205Z,12.33
2023-05-03T20:36:32.768Z,12.07
2023-05-03T20:38:59.291Z,11.37
2023-05-03T20:41:25.960Z,11.91
2023-05-03T20:43:54.698Z,11.99
2023-05-03T20:46:21.209Z,11.67
2023-05-03T20:48:47.598Z,11.72
2023-05-03T20:51:14.693Z,12.03
2023-05-03T20:53:41.288Z,12.05
2023-05-03T20:56:08.050Z,11.84
2023-05-03T20:58:34.636Z,11.85
2023-05-03T21:01:04.031Z,11.70
2023-05-03T21:03:30.858Z,11.44
2023-05-03T21:05:57.636Z,11.54
2023-05-03T21:08:24.418Z,11.75
2023-05-03T21:10:50.828Z,11.51
2023-05-03T21:13:17.343Z,11.54
2023-05-03T21:15:43.817Z,11.26
2023-05-03T21:18:11.215Z,11.36
2023-05-03T21:20:38.213Z,11.32
2023-05-03T21:23:05.084Z,11.19
2023-05-03T21:25:31.387Z,10.70
2023-05-03T21:27:57.687Z,11.03
2023-05-03T21:30:24.024Z,10.87
2023-05-03T21:32:50.704Z,11.14
2023-05-03T21:35:17.829Z,11.17
2023-05-03T21:37:45.979Z,11.07
2023-05-03T21:40:13.643Z,11.16
2023-05-03T21:42:39.987Z,10.88
2023-05-03T21:45:06.893Z,10.59
2023-05-03T21:47:33.339Z,10.40
2023-05-03T21:50:00.522Z,10.54
2023-05-03T21:52:27.062Z,10.79
2023-05-03T21:54:54.125Z,10.72
2023-05-03T21:57:20.422Z,10.73
2023-05-03T21:59:47.272Z,10.85
2023-05-03T22:02:13.800Z,10.60
2023-05-03T22:04:40.219Z,10.70
2023-05-03T22:07:06.627Z,10.52
2023-05-03T22:09:32.918Z,10.57
2023-05-03T22:12:03.857Z,10.55
2023-05-03T22:14:35.005Z,10.52
2023-05-03T22:17:01.426Z,10.63
2023-05-03T22:19:28.292Z,10.71
2023-05-03T22:21:54.725Z,10.33
2023-05-03T22:24:21.019Z,10.44
2023-05-03T22:26:47.486Z,10.04
2023-05-03T22:29:13.965Z,10.25
2023-05-03T22:31:40.474Z,10.37
2023-05-03T22:34:06.811Z,10.43
2023-05-03T22:36:33.095Z,10.34
2023-05-03T22:39:05.051Z,9.81
2023-05-03T22:41:33.958Z,10.18
2023-05-03T22:44:00.538Z,9.79
2023-05-03T22:46:26.991Z,9.88
2023-05-03T22:48:53.384Z,10.16
2023-05-03T22:51:19.845Z,9.68
2023-05-03T22:53:46.174Z,9.91
2023-05-03T22:56:13.260Z,9.70
2023-05-03T22:58:39.638Z,9.29
2023-05-03T23:01:13.438Z,9.86
2023-05-03T23:03:39.998Z,9.53
2023-05-03T23:06:07.142Z,9.63
2023-05-03T23:08:33.421Z,9.83
2023-05-03T23:10:59.743Z,9.39
2023-05-03T23:13:27.201Z,9.30
2023-05-03T23:15:56.792Z,9.54
2023-05-03T23:18:23.258Z,9.78
2023-05-03T23:20:49.519Z,9.55
2023-05-03T23:23:16.171Z,9.64
2023-05-03T23:25:42.805Z,9.40
2023-05-03T23:28:09.342Z,9.15
2023-05-03T23:30:36.220Z,9.40
2023-05-03T23:33:03.022Z,8.83
2023-05-03T23:35:29.974Z,8.91
2023-05-03T23:37:56.261Z,8.98
2023-05-03T23:40:22.706Z,9.02
2023-05-03T23:42:49.617Z,8.89
2023-05-03T23:45:15.980Z,8.94
2023-05-03T23:47:42.315Z,8.72
2023-05-03T23:50:09.109Z,8.73
2023-05-03T23:52:35.700Z,8.75
2023-05-03T23:55:02.291Z,8.57
2023-05-03T23:57:28.663Z,8.67
2023-05-03T23:59:55.047Z,8.82
